createdAt,value
2023-04-15T15:02:39.748Z,68.14
2023-04-15T15:05:10.583Z,68.22
2023-04-15T15:07:39.561Z,68.27
2023-04-15T15:10:07.886Z,68.27
2023-04-15T15:12:36.102Z,68.37
2023-04-15T15:15:15.570Z,68.44
2023-04-15T15:17:47.529Z,68.64
2023-04-15T15:20:16.732Z,68.70
2023-04-15T15:22:44.435Z,68.76
2023-04-15T15:25:12.186Z,68.98
2023-04-15T15:27:40.489Z,69.15
2023-04-15T15:30:08.714Z,69.30
2023-04-15T15:32:36.534Z,69.31
2023-04-15T15:35:04.728Z,69.37
2023-04-15T15:37:32.520Z,69.50
2023-04-15T15:40:01.015Z,69.57
2023-04-15T15:42:32.613Z,69.72
2023-04-15T15:45:00.412Z,69.85
2023-04-15T15:47:28.242Z,69.84
2023-04-15T15:49:56.220Z,70.07
2023-04-15T15:52:24.041Z,70.20
2023-04-15T15:54:51.753Z,70.98
2023-04-15T15:57:19.639Z,70.99
2023-04-15T15:59:47.876Z,70.91
2023-04-15T16:02:15.833Z,71.06
2023-04-15T16:04:43.801Z,71.57
2023-04-15T16:07:15.840Z,71.19
2023-04-15T16:09:43.892Z,71.15
2023-04-15T16:12:11.774Z,71.38
2023-04-15T16:14:40.033Z,71.19
2023-04-15T16:17:07.822Z,71.26
2023-04-15T16:19:35.833Z,71.15
2023-04-15T16:22:03.762Z,70.92
2023-04-15T16:24:34.855Z,70.94
2023-04-15T16:27:03.571Z,70.99
2023-04-15T16:29:31.500Z,71.13
2023-04-15T16:31:59.253Z,70.99
2023-04-15T16:34:27.755Z,71.07
2023-04-15T16:36:56.233Z,71.13
2023-04-15T16:39:24.563Z,71.19
2023-04-15T16:41:52.584Z,71.27
2023-04-15T16:44:20.367Z,71.26
2023-04-15T16:46:48.155Z,71.31
2023-04-15T16:49:16.095Z,71.50
2023-04-15T16:51:44.474Z,71.47
2023-04-15T16:54:12.349Z,71.61
2023-04-15T16:56:40.048Z,71.80
2023-04-15T16:59:07.732Z,71.85
2023-04-15T17:01:35.624Z,71.87
2023-04-15T17:04:03.961Z,71.97
2023-04-15T17:06:31.839Z,72.22
2023-04-15T17:08:59.604Z,72.44
2023-04-15T17:11:28.582Z,72.55
2023-04-15T17:13:56.304Z,73.07
2023-04-15T17:16:24.102Z,73.01
2023-04-15T17:18:52.397Z,73.09
2023-04-15T17:21:20.274Z,73.29
2023-04-15T17:23:48.027Z,73.29
2023-04-15T17:26:16.099Z,73.38
2023-04-15T17:28:43.844Z,73.61
2023-04-15T17:31:12.188Z,73.86
2023-04-15T17:34:03.251Z,73.89
2023-04-15T17:36:29.245Z,74.01
2023-04-15T17:38:57.226Z,74.17
2023-04-15T17:41:25.002Z,74.45
2023-04-15T17:43:52.750Z,74.76
2023-04-15T17:46:21.240Z,74.68
2023-04-15T17:48:49.569Z,75.04
2023-04-15T17:51:18.046Z,75.05
2023-04-15T17:53:45.913Z,75.07
2023-04-15T17:56:13.603Z,75.68
2023-04-15T17:58:41.370Z,75.73
2023-04-15T18:01:09.587Z,75.86
2023-04-15T18:03:37.430Z,76.19
2023-04-15T18:06:05.621Z,76.18
2023-04-15T18:08:33.327Z,76.05
2023-04-15T18:11:01.097Z,76.03
2023-04-15T18:13:28.873Z,76.00
2023-04-15T18:15:57.240Z,76.18
2023-04-15T18:18:25.214Z,76.32
2023-04-15T18:20:52.909Z,76.52
2023-04-15T18:23:20.761Z,76.69
2023-04-15T18:25:48.536Z,77.01
2023-04-15T18:28:16.358Z,77.47
2023-04-15T18:30:44.247Z,77.88
2023-04-15T18:33:12.593Z,77.61
2023-04-15T18:35:42.790Z,77.28
2023-04-15T18:38:10.950Z,77.21
2023-04-15T18:40:38.689Z,77.47
2023-04-15T18:43:06.770Z,77.34
2023-04-15T18:45:34.570Z,77.44
2023-04-15T18:48:03.423Z,77.54
2023-04-15T18:50:31.200Z,77.69
2023-04-15T18:52:59.191Z,77.69
2023-04-15T18:55:26.930Z,77.68
2023-04-15T18:57:54.736Z,78.40
2023-04-15T19:00:24.582Z,78.12
2023-04-15T19:02:53.032Z,78.17
2023-04-15T19:05:21.083Z,78.31
2023-04-15T19:07:51.294Z,78.42
2023-04-15T19:10:19.145Z,78.55
2023-04-15T19:12:46.903Z,79.03
2023-04-15T19:15:14.881Z,78.96
2023-04-15T19:17:43.141Z,78.81
2023-04-15T19:20:11.013Z,79.04
2023-04-15T19:22:38.846Z,79.03
2023-04-15T19:25:06.863Z,78.97
2023-04-15T19:27:34.621Z,79.10
2023-04-15T19:30:03.480Z,79.06
2023-04-15T19:32:31.909Z,79.32
2023-04-15T19:34:59.788Z,79.22
2023-04-15T19:37:27.914Z,79.28
2023-04-15T19:39:56.181Z,79.24
2023-04-15T19:42:23.974Z,79.32
2023-04-15T19:44:52.249Z,79.55
2023-04-15T19:47:20.090Z,79.58
2023-04-15T19:49:47.924Z,79.46
2023-04-15T19:52:16.342Z,79.58
2023-04-15T19:54:44.341Z,79.73
2023-04-15T19:57:12.149Z,79.94
2023-04-15T19:59:41.208Z,79.75
2023-04-15T20:02:09.718Z,79.71
2023-04-15T20:04:37.986Z,80.00
2023-04-15T20:07:05.818Z,79.86
2023-04-15T20:09:33.596Z,79.93
2023-04-15T20:12:05.984Z,80.13
2023-04-15T20:14:49.723Z,80.18
2023-04-15T20:17:17.863Z,80.27
2023-04-15T20:19:48.297Z,80.51
2023-04-15T20:22:17.955Z,80.57
2023-04-15T20:24:45.753Z,80.71
2023-04-15T20:27:13.428Z,80.98
2023-04-15T20:29:41.578Z,81.05
2023-04-15T20:32:11.622Z,81.13
2023-04-15T20:34:42.831Z,81.21
2023-04-15T20:37:12.228Z,81.34
2023-04-15T20:39:41.387Z,81.14
2023-04-15T20:42:11.794Z,81.30
2023-04-15T20:44:40.741Z,81.39
2023-04-15T20:47:09.181Z,81.52
2023-04-15T20:49:38.943Z,81.52
2023-04-15T20:52:08.024Z,82.04
2023-04-15T20:54:35.731Z,82.04
2023-04-15T20:57:03.752Z,81.89
2023-04-15T20:59:32.956Z,81.98
2023-04-15T21:02:01.555Z,81.88
2023-04-15T21:04:29.924Z,81.80
2023-04-15T21:06:57.750Z,81.89
2023-04-15T21:09:25.539Z,82.37
2023-04-15T21:12:01.056Z,82.67
2023-04-15T21:14:30.243Z,82.68
2023-04-15T21:16:58.608Z,82.49
2023-04-15T21:19:26.394Z,82.38
2023-04-15T21:21:54.068Z,82.37
2023-04-15T21:24:21.836Z,82.43
2023-04-15T21:26:49.563Z,82.44
2023-04-15T21:29:17.937Z,82.39
2023-04-15T21:31:46.727Z,82.31
2023-04-15T21:34:14.548Z,82.46
2023-04-15T21:36:42.360Z,82.57
2023-04-15T21:39:10.171Z,82.96
2023-04-15T21:41:38.045Z,83.53
2023-04-15T21:44:06.302Z,83.87
2023-04-15T21:46:35.063Z,83.84
2023-04-15T21:49:03.679Z,83.74
2023-04-15T21:51:32.703Z,83.63
2023-04-15T21:54:00.556Z,83.56
2023-04-15T21:56:29.090Z,83.52
2023-04-15T21:58:57.813Z,83.70
2023-04-15T22:01:26.786Z,83.69
2023-04-15T22:03:55.124Z,83.54
2023-04-15T22:06:23.070Z,83.23
2023-04-15T22:08:56.715Z,82.99
2023-04-15T22:11:30.467Z,82.93
2023-04-15T22:13:59.249Z,82.98
2023-04-15T22:16:27.758Z,82.93
2023-04-15T22:18:56.185Z,82.73
2023-04-15T22:21:24.211Z,82.68
2023-04-15T22:23:53.074Z,82.89
2023-04-15T22:26:41.414Z,83.11
2023-04-15T22:29:09.355Z,83.08
2023-04-15T22:31:37.206Z,83.08
2023-04-15T22:34:05.103Z,83.24
2023-04-15T22:36:32.788Z,83.38
2023-04-15T22:39:00.603Z,83.28
2023-04-15T22:41:29.113Z,83.39
2023-04-15T22:43:56.814Z,83.67
2023-04-15T22:46:24.558Z,83.51
2023-04-15T22:48:54.295Z,83.33
2023-04-15T22:51:28.008Z,83.41
2023-04-15T22:53:56.575Z,83.47
2023-04-15T22:56:24.871Z,83.40
2023-04-15T22:58:52.550Z,83.12
2023-04-15T23:01:21.280Z,82.97
2023-04-15T23:03:57.541Z,82.90
2023-04-15T23:06:33.813Z,82.99
2023-04-15T23:09:01.498Z,82.89
2023-04-15T23:11:29.253Z,82.89
2023-04-15T23:13:57.198Z,82.79
2023-04-15T23:16:25.047Z,82.80
2023-04-15T23:18:52.935Z,82.81
2023-04-15T23:21:20.982Z,83.01
2023-04-15T23:23:48.792Z,83.09
2023-04-15T23:26:16.536Z,83.18
2023-04-15T23:28:44.279Z,83.31
2023-04-15T23:31:12.045Z,83.38
2023-04-15T23:33:39.934Z,83.40
2023-04-15T23:36:07.850Z,83.46
2023-04-15T23:38:35.812Z,83.74
2023-04-15T23:41:03.642Z,83.95
2023-04-15T23:43:31.405Z,83.84
2023-04-15T23:45:59.127Z,83.93
2023-04-15T23:48:26.960Z,83.89
2023-04-15T23:50:54.671Z,83.92
2023-04-15T23:53:22.461Z,84.03
2023-04-15T23:55:50.261Z,84.05
2023-04-15T23:58:18.041Z,84.03
